Time;durP1;ratioP1;P1;durP2;ratioP2;P2;SDS_P1;SDS_P2;PMS_P1;PMS_P2;Temp;Humidity;BMP_temperature;BMP_pressure;BME280_temperature;BME280_humidity;BME280_pressure;Samples;Min_cycle;Max_cycle;Signal;HPM_P1;HPM_P2
2022/01/23 00:01:09;;;;;;;23.17;7.93;;;;;;;17.29;18.50;99093.78;5055416;28;20033;-81
2022/01/23 00:03:41;;;;;;;23.42;7.63;;;;;;;16.79;18.99;99105.72;5055229;28;20028;-81
2022/01/23 00:06:07;;;;;;;19.52;6.50;;;;;;;17.40;18.57;99107.88;5057789;28;20104;-81
2022/01/23 00:08:33;;;;;;;19.17;8.02;;;;;;;16.83;18.93;99106.63;5055287;28;20057;-80
2022/01/23 00:10:59;;;;;;;21.98;6.45;;;;;;;17.13;18.80;99110.47;5055098;28;20040;-81
2022/01/23 00:13:32;;;;;;;21.08;7.43;;;;;;;16.85;19.11;99109.03;5053986;28;20040;-81
2022/01/23 00:18:43;;;;;;;18.08;6.95;;;;;;;18.17;17.82;99114.22;5074965;28;20845;-81
2022/01/23 00:21:09;;;;;;;19.13;6.00;;;;;;;18.01;17.88;99108.78;5073993;28;20396;-80
2022/01/23 00:30:20;;;;;;;18.85;6.95;;;;;;;17.62;18.13;99113.53;5054379;28;20101;-81
2022/01/23 00:31:51;;;;;;;16.17;6.82;;;;;;;17.50;18.29;99116.47;5055405;28;20044;-81
2022/01/23 00:34:17;;;;;;;14.88;6.13;;;;;;;17.52;18.53;99121.66;5054521;28;20056;-81
2022/01/23 00:36:43;;;;;;;14.55;6.03;;;;;;;17.13;18.69;99110.47;5054754;28;20029;-81
2022/01/23 00:39:09;;;;;;;22.98;7.30;;;;;;;16.51;19.40;99122.50;5054642;28;20535;-81
2022/01/23 00:41:35;;;;;;;16.52;6.22;;;;;;;16.40;19.61;99121.38;5054571;28;20033;-81
2022/01/23 00:44:02;;;;;;;16.48;6.05;;;;;;;16.53;19.27;99116.56;5055039;28;20082;-80
2022/01/23 00:46:34;;;;;;;18.27;6.32;;;;;;;16.63;19.53;99115.22;5070022;28;20071;-80
2022/01/23 00:49:24;;;;;;;17.70;6.32;;;;;;;16.52;19.36;99113.00;5073608;28;20070;-81
2022/01/23 00:51:48;;;;;;;18.63;6.65;;;;;;;16.57;19.39;99106.38;5074207;28;20047;-80
2022/01/23 00:54:14;;;;;;;16.75;6.68;;;;;;;16.02;19.75;99104.53;5074277;28;20104;-81
2022/01/23 00:56:40;;;;;;;16.27;6.53;;;;;;;15.86;20.19;99104.53;5074472;28;20037;-80
2022/01/23 00:59:06;;;;;;;14.43;5.03;;;;;;;15.96;19.68;99113.47;5071947;28;20021;-80
2022/01/23 01:01:33;;;;;;;12.48;5.45;;;;;;;15.88;19.91;99107.75;5071437;28;20029;-81
2022/01/23 01:03:59;;;;;;;17.33;6.75;;;;;;;15.54;20.16;99108.34;5073006;28;20035;-80
2022/01/23 01:06:25;;;;;;;16.52;5.88;;;;;;;15.99;19.77;99107.19;5073256;28;20064;-80
2022/01/23 01:08:54;;;;;;;17.77;6.18;;;;;;;16.12;19.60;99106.00;5074386;28;20016;-80
2022/01/23 01:35:37;;;;;;;16.10;5.43;;;;;;;16.20;19.30;99105.00;5074474;28;20037;-81
2022/01/23 01:38:03;;;;;;;16.08;6.03;;;;;;;15.74;19.75;99101.00;5054428;28;20473;-81
2022/01/23 01:40:31;;;;;;;19.60;7.57;;;;;;;15.19;20.52;99108.06;5052793;28;20059;-81
2022/01/23 01:42:57;;;;;;;16.80;5.88;;;;;;;15.82;20.05;99100.84;5053421;28;20033;-81
2022/01/23 01:45:25;;;;;;;13.82;5.28;;;;;;;16.13;19.52;99107.59;5071436;28;20032;-81
2022/01/23 01:47:53;;;;;;;19.65;5.97;;;;;;;16.96;18.87;99099.81;5073469;28;20024;-80
2022/01/23 01:50:20;;;;;;;14.75;5.43;;;;;;;15.64;19.85;99101.50;5072262;28;20044;-81
2022/01/23 01:52:46;;;;;;;14.73;5.68;;;;;;;15.59;20.05;99104.53;5073094;28;20103;-80
2022/01/23 01:55:18;;;;;;;16.33;7.13;;;;;;;15.48;19.88;99101.47;5056491;28;20448;-81
2022/01/23 01:57:52;;;;;;;14.30;5.95;;;;;;;15.53;20.14;99098.44;5054214;28;20029;-81
2022/01/23 02:00:47;;;;;;;13.85;5.60;;;;;;;15.21;20.47;99097.50;5053128;28;20037;-80
2022/01/23 02:08:29;;;;;;;14.75;5.07;;;;;;;15.40;19.87;99099.63;5053881;28;20099;-81
2022/01/23 02:11:02;;;;;;;14.55;5.30;;;;;;;16.03;19.31;99108.13;5062612;28;20031;-80
2022/01/23 02:16:32;;;;;;;16.05;5.72;;;;;;;15.23;20.33;99108.19;5073051;28;20033;-80
2022/01/23 02:22:32;;;;;;;14.93;5.72;;;;;;;15.22;20.08;99115.69;5073120;28;20154;-80
2022/01/23 02:52:14;;;;;;;13.82;5.35;;;;;;;16.29;19.00;99138.91;5076857;28;20047;-80
2022/01/23 02:54:54;;;;;;;17.77;6.55;;;;;;;16.65;18.68;99135.91;5076658;28;20059;-80
2022/01/23 03:00:25;;;;;;;15.20;5.45;;;;;;;15.98;19.17;99131.34;5074538;28;20131;-80
2022/01/23 03:02:55;;;;;;;11.02;4.68;;;;;;;15.90;19.38;99132.31;5076094;28;20068;-80
2022/01/23 03:08:06;;;;;;;19.77;6.95;;;;;;;15.72;19.37;99131.81;5077025;28;20028;-80
2022/01/23 03:10:40;;;;;;;18.20;6.75;;;;;;;15.97;19.29;99137.22;5076649;28;20025;-80
2022/01/23 03:27:00;;;;;;;17.08;7.20;;;;;;;15.67;19.34;99140.38;5055890;28;20112;-80
2022/01/23 03:29:38;;;;;;;17.58;5.50;;;;;;;14.74;20.19;99142.59;5056089;28;20025;-80
2022/01/23 03:32:20;;;;;;;23.02;8.38;;;;;;;15.51;19.72;99147.81;5056236;28;20082;-80
2022/01/23 03:34:46;;;;;;;17.25;6.72;;;;;;;15.23;19.64;99136.69;5055000;28;20124;-80
2022/01/23 03:37:12;;;;;;;19.77;7.82;;;;;;;15.53;19.60;99147.44;5056111;28;20118;-80
2022/01/23 03:39:38;;;;;;;17.63;7.35;;;;;;;15.31;19.63;99137.66;5056560;28;20034;-80
2022/01/23 03:42:05;;;;;;;20.02;7.55;;;;;;;14.28;20.85;99130.78;5063519;28;20465;-79
2022/01/23 03:44:34;;;;;;;16.90;7.00;;;;;;;14.53;20.63;99140.75;5055619;28;20051;-80
2022/01/23 03:49:38;;;;;;;17.20;7.20;;;;;;;15.36;19.66;99133.84;5055430;28;20045;-80
2022/01/23 03:52:06;;;;;;;19.17;6.28;;;;;;;15.14;19.96;99133.25;5057861;28;20040;-80
2022/01/23 03:54:33;;;;;;;16.85;7.10;;;;;;;15.53;19.65;99130.84;5075832;28;20028;-80
2022/01/23 03:57:01;;;;;;;15.70;6.95;;;;;;;15.89;19.04;99137.03;5073242;28;20480;-80
2022/01/23 03:59:28;;;;;;;16.42;6.15;;;;;;;16.13;18.87;99138.06;5075514;28;20119;-80
2022/01/23 04:01:54;;;;;;;16.10;6.22;;;;;;;15.91;19.04;99136.69;5075694;28;20052;-80
2022/01/23 04:04:37;;;;;;;22.70;7.93;;;;;;;16.36;18.60;99122.47;5075221;28;20032;-80
2022/01/23 04:07:06;;;;;;;20.30;7.40;;;;;;;15.67;19.21;99122.94;5075600;28;20033;-80
2022/01/23 04:09:33;;;;;;;18.33;7.95;;;;;;;16.25;18.81;99133.25;5068493;28;20048;-80
2022/01/23 04:12:00;;;;;;;17.55;8.15;;;;;;;15.80;18.92;99133.63;5055217;28;20075;-80
2022/01/23 04:14:28;;;;;;;21.25;8.43;;;;;;;15.51;19.15;99144.22;5067343;28;20111;-80
2022/01/23 04:17:39;;;;;;;20.52;7.43;;;;;;;15.92;18.88;99146.59;5075241;28;20082;-80
2022/01/23 05:00:23;;;;;;;21.13;8.85;;;;;;;14.53;20.80;99190.50;5059179;28;20039;-80
2022/01/23 05:05:36;;;;;;;20.83;9.88;;;;;;;14.71;20.19;99195.78;5074374;28;20048;-80
2022/01/23 05:08:05;;;;;;;31.52;11.60;;;;;;;15.47;19.61;99185.66;5074411;28;20025;-79
2022/01/23 05:10:33;;;;;;;23.98;10.60;;;;;;;14.16;20.80;99190.72;5073864;28;20074;-80
2022/01/23 05:12:59;;;;;;;24.13;10.80;;;;;;;14.95;19.94;99196.63;5073736;28;20387;-80
2022/01/23 05:15:26;;;;;;;17.05;8.23;;;;;;;14.46;20.44;99204.06;5073940;28;20032;-80
2022/01/23 05:17:52;;;;;;;23.08;10.73;;;;;;;15.05;20.22;99207.22;5073047;28;20032;-80
2022/01/23 05:20:19;;;;;;;23.88;9.95;;;;;;;14.26;20.74;99204.13;5072684;28;20515;-80
2022/01/23 05:22:49;;;;;;;24.65;10.85;;;;;;;14.79;20.44;99205.94;5073890;28;20032;-80
2022/01/23 05:25:22;;;;;;;23.73;10.00;;;;;;;15.07;19.89;99204.94;5073441;28;20036;-80
2022/01/23 05:27:52;;;;;;;25.13;11.45;;;;;;;15.24;20.02;99206.63;5073996;28;20036;-80
2022/01/23 05:30:18;;;;;;;32.75;14.45;;;;;;;14.87;20.07;99205.03;5065290;28;20040;-80
2022/01/23 05:32:45;;;;;;;23.30;10.90;;;;;;;14.01;20.99;99205.97;5053612;28;20040;-80
2022/01/23 05:35:13;;;;;;;35.35;15.23;;;;;;;14.11;20.93;99205.56;5056687;28;20033;-80
2022/01/23 05:37:40;;;;;;;27.30;12.50;;;;;;;14.56;20.57;99205.59;5062071;28;20552;-80
2022/01/23 05:40:09;;;;;;;28.90;14.10;;;;;;;14.98;20.10;99203.44;5072613;28;20091;-80
2022/01/23 05:42:35;;;;;;;27.42;12.23;;;;;;;14.12;20.96;99204.38;5074052;28;20020;-80
2022/01/23 05:45:02;;;;;;;28.23;12.90;;;;;;;14.94;20.12;99214.34;5074341;28;20041;-80
2022/01/23 05:47:28;;;;;;;27.15;12.32;;;;;;;15.48;19.53;99214.09;5073325;28;20060;-80
2022/01/23 05:49:54;;;;;;;24.23;10.77;;;;;;;15.76;19.21;99209.44;5073268;28;20068;-80
2022/01/23 05:52:20;;;;;;;35.05;14.48;;;;;;;16.54;18.57;99212.44;5070679;28;20038;-80
2022/01/23 05:54:46;;;;;;;26.50;11.82;;;;;;;14.70;20.17;99214.38;5072583;28;20397;-80
2022/01/23 05:57:12;;;;;;;33.70;15.60;;;;;;;15.22;19.66;99217.22;5073336;28;20040;-80
2022/01/23 05:59:38;;;;;;;27.48;12.82;;;;;;;15.47;19.45;99218.06;5073197;28;20446;-80
2022/01/23 06:02:05;;;;;;;32.60;12.45;;;;;;;16.65;18.47;99221.03;5073571;28;20085;-80
2022/01/23 06:04:31;;;;;;;30.73;12.80;;;;;;;16.37;18.62;99221.06;5073144;28;20032;-80
2022/01/23 06:06:59;;;;;;;34.15;13.13;;;;;;;16.23;18.63;99213.16;5073192;28;20044;-80
2022/01/23 06:09:26;;;;;;;26.52;11.02;;;;;;;16.45;18.58;99207.03;5059362;28;20369;-80
2022/01/23 06:11:52;;;;;;;26.40;11.52;;;;;;;17.04;18.01;99206.16;5059524;28;20052;-80
2022/01/23 06:14:19;;;;;;;28.98;12.00;;;;;;;17.12;18.03;99208.78;5068399;28;20033;-80
2022/01/23 06:16:45;;;;;;;25.50;10.80;;;;;;;17.57;17.21;99208.28;5053061;28;20052;-80
2022/01/23 06:19:12;;;;;;;25.40;10.38;;;;;;;17.00;18.01;99211.66;5051519;28;20043;-80
2022/01/23 06:21:38;;;;;;;23.20;10.98;;;;;;;17.33;17.57;99222.34;5053040;28;20079;-80
2022/01/23 06:24:11;;;;;;;26.55;10.32;;;;;;;17.43;17.59;99221.00;5052833;28;20033;-80
2022/01/23 06:26:50;;;;;;;27.45;11.20;;;;;;;17.59;17.34;99236.47;5053580;28;20021;-80
2022/01/23 06:29:17;;;;;;;29.65;12.25;;;;;;;17.67;17.31;99231.84;5053690;28;20029;-80
2022/01/23 06:31:48;;;;;;;28.83;11.57;;;;;;;18.00;17.17;99229.41;5052951;28;20049;-79
2022/01/23 06:34:15;;;;;;;;;;;;;;;18.69;16.50;99228.41;5053409;28;20481;-80
2022/01/23 06:36:42;;;;;;;30.83;12.55;;;;;;;18.55;16.47;99234.50;5053787;28;19913;-80
2022/01/23 06:39:10;;;;;;;32.28;11.88;;;;;;;18.03;17.01;99236.22;5073033;28;20028;-79
2022/01/23 06:41:37;;;;;;;29.17;11.60;;;;;;;18.38;16.86;99246.09;5072888;28;20021;-80
2022/01/23 06:44:04;;;;;;;25.58;10.52;;;;;;;18.50;16.67;99250.69;5071979;28;20111;-80
2022/01/23 06:46:31;;;;;;;30.15;11.90;;;;;;;18.00;17.13;99248.84;5072043;28;20040;-80
2022/01/23 06:48:58;;;;;;;25.20;11.80;;;;;;;17.81;17.23;99255.19;5072658;28;20090;-80
2022/01/23 06:51:24;;;;;;;27.40;10.63;;;;;;;17.93;17.40;99257.84;5072518;28;20029;-80
2022/01/23 06:53:51;;;;;;;26.60;11.95;;;;;;;18.15;17.11;99263.88;5072840;28;20040;-80
2022/01/23 06:56:18;;;;;;;24.35;11.32;;;;;;;17.34;17.83;99271.13;5072869;28;20123;-80
2022/01/23 06:58:44;;;;;;;22.55;10.52;;;;;;;18.15;17.19;99266.66;5072249;28;20103;-80
2022/01/23 07:01:10;;;;;;;21.77;10.00;;;;;;;18.25;17.12;99258.50;5053236;28;20376;-80
2022/01/23 07:03:37;;;;;;;35.25;12.88;;;;;;;18.46;16.86;99272.88;5053172;28;20029;-80
2022/01/23 07:06:03;;;;;;;27.45;11.00;;;;;;;18.84;16.51;99277.56;5052378;28;20104;-80
2022/01/23 07:08:30;;;;;;;25.58;11.20;;;;;;;18.84;16.34;99283.13;5052929;28;20150;-80
2022/01/23 07:10:56;;;;;;;26.67;11.32;;;;;;;18.91;16.44;99280.47;5052707;28;20029;-80
2022/01/23 07:13:22;;;;;;;25.90;11.55;;;;;;;18.60;16.68;99277.91;5067045;28;20086;-80
2022/01/23 07:15:48;;;;;;;22.38;9.60;;;;;;;18.04;17.26;99279.53;5053193;28;20493;-80
2022/01/23 07:18:18;;;;;;;22.23;9.38;;;;;;;18.71;16.71;99284.50;5055693;28;20043;-80
2022/01/23 07:20:45;;;;;;;26.25;11.02;;;;;;;18.15;17.04;99275.78;5065278;28;20107;-80
2022/01/23 07:23:12;;;;;;;25.48;11.02;;;;;;;17.99;17.42;99288.13;5062670;28;20032;-79
2022/01/23 07:25:41;;;;;;;24.85;10.57;;;;;;;18.62;16.84;99292.25;5076111;28;20032;-80
2022/01/23 07:28:13;;;;;;;20.30;8.52;;;;;;;19.12;16.31;99286.41;5076323;28;20074;-80
2022/01/23 07:30:51;;;;;;;26.52;10.13;;;;;;;19.82;15.89;99299.88;5076265;28;20032;-80
2022/01/23 07:33:17;;;;;;;25.05;9.82;;;;;;;19.71;15.63;99305.31;5071661;28;20472;-80
2022/01/23 07:35:44;;;;;;;28.42;11.23;;;;;;;20.18;15.50;99312.34;5058804;28;20059;-80
2022/01/23 07:38:11;;;;;;;25.42;10.43;;;;;;;20.44;15.25;99318.69;5074955;28;20029;-80
2022/01/23 07:40:38;;;;;;;27.23;9.82;;;;;;;20.68;15.10;99317.38;5075826;28;20388;-80
2022/01/23 07:43:04;;;;;;;27.40;11.63;;;;;;;20.85;14.72;99327.16;5076046;28;20047;-80
2022/01/23 07:45:30;;;;;;;28.92;11.52;;;;;;;21.11;14.78;99322.28;5075674;28;20067;-80
2022/01/23 07:47:56;;;;;;;23.35;9.57;;;;;;;21.27;14.53;99325.63;5075189;28;20392;-80
2022/01/23 07:50:23;;;;;;;25.67;9.55;;;;;;;21.12;14.71;99329.44;5069762;28;20037;-80
2022/01/23 07:52:49;;;;;;;18.63;8.95;;;;;;;21.16;14.61;99327.53;5055501;28;20040;-80
2022/01/23 07:55:16;;;;;;;23.20;9.77;;;;;;;21.32;14.73;99330.06;5056342;28;20025;-80
2022/01/23 07:57:43;;;;;;;24.42;8.93;;;;;;;21.53;14.28;99335.00;5055531;28;20477;-80
2022/01/23 08:00:11;;;;;;;33.63;11.57;;;;;;;21.69;14.32;99341.13;5055378;28;20029;-80
2022/01/23 08:02:38;;;;;;;29.08;11.45;;;;;;;21.43;14.34;99341.31;5055409;28;20086;-80
2022/01/23 08:05:05;;;;;;;26.33;10.60;;;;;;;21.27;14.61;99349.94;5055500;28;20029;-80
2022/01/23 08:07:31;;;;;;;29.10;12.30;;;;;;;20.20;15.10;99361.00;5061292;28;20033;-80
2022/01/23 08:09:59;;;;;;;22.02;10.57;;;;;;;20.05;15.46;99370.31;5075355;28;20025;-80
2022/01/23 08:12:27;;;;;;;24.83;12.88;;;;;;;19.75;15.87;99361.09;5064659;28;20107;-80
2022/01/23 08:14:53;;;;;;;27.33;11.95;;;;;;;18.69;16.80;99373.06;5055458;28;20032;-80
2022/01/23 08:17:24;;;;;;;25.10;11.45;;;;;;;18.14;17.35;99370.63;5054910;28;20484;-80
2022/01/23 08:19:54;;;;;;;23.65;10.50;;;;;;;17.02;18.74;99378.56;5055131;28;20041;-80
2022/01/23 08:22:25;;;;;;;25.67;11.20;;;;;;;17.91;17.90;99387.19;5055392;28;20060;-80
2022/01/23 08:24:52;;;;;;;28.67;12.75;;;;;;;17.97;17.79;99382.16;5055841;28;20052;-79
2022/01/23 08:27:19;;;;;;;21.42;9.98;;;;;;;17.67;17.98;99376.28;5055637;28;20112;-79
2022/01/23 08:29:46;;;;;;;26.88;12.02;;;;;;;17.98;17.68;99384.56;5054831;28;20065;-80
2022/01/23 08:32:12;;;;;;;25.75;12.05;;;;;;;18.37;17.38;99388.22;5054723;28;20035;-80
2022/01/23 08:34:39;;;;;;;30.48;11.95;;;;;;;18.75;17.03;99376.34;5060189;28;20036;-80
2022/01/23 08:37:07;;;;;;;22.65;10.90;;;;;;;19.03;16.88;99374.94;5066449;28;20025;-80
2022/01/23 08:39:36;;;;;;;26.30;11.02;;;;;;;18.36;17.27;99383.84;5067778;28;20039;-80
2022/01/23 08:42:04;;;;;;;22.60;10.88;;;;;;;18.27;17.57;99383.25;5063834;28;20025;-80
2022/01/23 08:44:30;;;;;;;23.70;11.82;;;;;;;18.29;17.55;99389.25;5055111;28;20037;-80
2022/01/23 08:46:57;;;;;;;22.55;11.95;;;;;;;17.87;17.87;99391.88;5054612;28;20051;-80
2022/01/23 08:49:24;;;;;;;26.70;13.00;;;;;;;17.98;17.81;99386.53;5054627;28;20468;-81
2022/01/23 08:51:53;;;;;;;23.00;11.27;;;;;;;17.71;18.30;99391.06;5054724;28;20064;-80
2022/01/23 08:54:19;;;;;;;32.28;13.63;;;;;;;18.17;17.67;99383.81;5054717;28;20472;-81
2022/01/23 08:56:45;;;;;;;23.83;10.85;;;;;;;18.83;17.31;99386.47;5054355;28;20040;-81
2022/01/23 08:59:12;;;;;;;31.27;11.50;;;;;;;18.36;17.39;99392.19;5054930;28;20033;-81
2022/01/23 09:01:38;;;;;;;38.47;15.38;;;;;;;18.63;17.40;99394.81;5054748;28;20029;-81
2022/01/23 09:04:06;;;;;;;122.95;39.10;;;;;;;19.34;16.83;99398.97;5054085;28;20037;-81
2022/01/23 09:06:32;;;;;;;29.52;12.93;;;;;;;19.06;16.97;99406.78;5057197;28;20108;-81
2022/01/23 09:09:00;;;;;;;36.10;14.15;;;;;;;19.28;16.71;99398.47;5054470;28;20083;-80
2022/01/23 09:14:06;;;;;;;30.30;13.75;;;;;;;17.49;18.34;99400.81;5054341;28;20373;-81
2022/01/23 09:16:38;;;;;;;31.75;13.50;;;;;;;18.02;18.18;99402.13;5054699;28;20419;-81
2022/01/23 09:19:05;;;;;;;34.20;14.52;;;;;;;19.05;17.30;99408.75;5053374;28;20040;-82
2022/01/23 09:21:31;;;;;;;29.05;13.13;;;;;;;19.72;16.64;99404.44;5054225;28;20032;-81
2022/01/23 09:23:57;;;;;;;30.48;13.35;;;;;;;19.85;16.33;99403.06;5052495;28;20033;-81
2022/01/23 09:26:25;;;;;;;28.45;12.88;;;;;;;19.12;17.09;99392.19;5053891;28;20028;-81
2022/01/23 09:28:54;;;;;;;28.13;12.40;;;;;;;18.77;17.16;99397.06;5053767;28;20029;-81
2022/01/23 09:34:10;;;;;;;35.47;15.57;;;;;;;18.05;18.05;99401.41;5058727;28;20035;-81
2022/01/23 09:36:36;;;;;;;29.90;14.63;;;;;;;16.52;19.80;99401.28;5054152;28;20416;-81
2022/01/23 09:39:03;;;;;;;26.45;13.25;;;;;;;17.07;19.33;99402.44;5053573;28;20032;-81
2022/01/23 09:41:32;;;;;;;27.73;13.77;;;;;;;17.42;18.87;99397.03;5053721;28;20033;-81
2022/01/23 09:44:00;;;;;;;23.77;11.98;;;;;;;18.21;18.09;99404.97;5053237;28;20112;-81
2022/01/23 09:46:27;;;;;;;29.70;13.65;;;;;;;17.00;19.20;99403.06;5052362;28;20041;-81
2022/01/23 09:48:54;;;;;;;28.23;13.93;;;;;;;18.12;18.31;99412.69;5054311;28;20393;-81
2022/01/23 09:51:25;;;;;;;33.35;14.80;;;;;;;17.03;18.95;99401.56;5073417;28;20036;-81
2022/01/23 09:53:55;;;;;;;29.60;13.25;;;;;;;18.19;18.49;99412.06;5072590;28;20063;-81
2022/01/23 09:56:27;;;;;;;30.20;13.48;;;;;;;18.29;18.11;99409.53;5073493;28;20059;-81
2022/01/23 09:58:57;;;;;;;27.90;13.32;;;;;;;18.38;17.95;99412.91;5073465;28;20024;-81
2022/01/23 10:01:24;;;;;;;28.60;12.57;;;;;;;19.00;17.77;99406.28;5060759;28;20448;-82
2022/01/23 10:03:51;;;;;;;32.70;15.75;;;;;;;18.38;17.78;99400.97;5051898;28;20397;-81
2022/01/23 10:06:17;;;;;;;29.25;14.00;;;;;;;17.25;19.13;99410.09;5053688;28;20029;-81
2022/01/23 10:08:44;;;;;;;26.02;13.45;;;;;;;18.86;17.65;99411.56;5053506;28;20033;-81
2022/01/23 10:11:13;;;;;;;37.25;16.40;;;;;;;18.21;18.20;99407.75;5053212;28;20029;-81
2022/01/23 10:13:41;;;;;;;27.75;14.43;;;;;;;18.41;18.25;99420.50;5052969;28;20048;-81
2022/01/23 10:16:07;;;;;;;35.13;16.17;;;;;;;19.04;17.69;99414.72;5058207;28;20059;-81
2022/01/23 10:18:34;;;;;;;34.35;16.13;;;;;;;19.82;16.99;99412.19;5052850;28;20037;-81
2022/01/23 10:21:00;;;;;;;29.63;13.43;;;;;;;19.49;16.97;99423.13;5052978;28;20037;-81
2022/01/23 10:23:27;;;;;;;28.67;13.55;;;;;;;19.60;17.11;99415.00;5056574;28;20075;-80
2022/01/23 10:25:54;;;;;;;32.75;14.30;;;;;;;19.35;17.16;99416.50;5061776;28;20065;-81
2022/01/23 10:28:24;;;;;;;29.85;14.95;;;;;;;19.62;17.21;99421.81;5054499;28;20033;-81
2022/01/23 10:30:57;;;;;;;41.25;17.20;;;;;;;19.33;17.29;99416.84;5035361;28;20412;-81
2022/01/23 10:33:28;;;;;;;32.80;15.75;;;;;;;18.85;17.78;99412.75;5071683;28;20115;-81
2022/01/23 10:35:56;;;;;;;33.28;14.68;;;;;;;19.45;17.55;99408.34;5073238;28;20039;-81
2022/01/23 10:38:24;;;;;;;35.17;16.75;;;;;;;19.18;17.57;99406.63;5073029;28;20029;-81
2022/01/23 10:41:05;;;;;;;36.75;17.30;;;;;;;18.35;18.18;99410.84;5072024;28;20029;-81
2022/01/23 10:49:00;;;;;;;27.63;13.48;;;;;;;17.92;18.73;99411.81;5073210;28;20055;-80
2022/01/23 10:51:37;;;;;;;33.50;15.15;;;;;;;19.42;17.67;99409.09;5060680;28;20105;-81
2022/01/23 10:54:09;;;;;;;28.20;14.25;;;;;;;19.67;17.07;99407.56;5052875;28;20055;-81
2022/01/23 10:57:02;;;;;;;29.30;14.52;;;;;;;19.83;16.98;99407.41;5069104;28;20387;-81
2022/01/23 10:59:49;;;;;;;37.70;16.83;;;;;;;19.43;17.19;99405.13;5076862;28;20500;-82
2022/01/23 11:02:21;;;;;;;35.42;16.63;;;;;;;18.86;17.65;99402.41;5076065;28;20024;-81
2022/01/23 11:05:08;;;;;;;30.55;16.00;;;;;;;19.44;17.30;99412.31;5075222;28;20400;-80
2022/01/23 11:07:38;;;;;;;29.48;15.05;;;;;;;20.12;16.62;99406.66;5077020;28;20024;-80
2022/01/23 11:10:13;;;;;;;43.22;17.90;;;;;;;20.22;16.47;99411.63;5076248;28;20035;-80
2022/01/23 11:18:08;;;;;;;37.78;17.33;;;;;;;19.79;16.92;99410.13;5066558;28;20043;-81
2022/01/23 11:20:47;;;;;;;35.17;16.38;;;;;;;19.91;17.12;99406.34;5076090;28;20044;-80
2022/01/23 11:23:27;;;;;;;28.52;13.70;;;;;;;20.81;16.25;99410.06;5076217;28;20043;-80
2022/01/23 11:25:56;;;;;;;26.00;12.18;;;;;;;20.43;16.49;99416.72;5076011;28;20032;-81
2022/01/23 11:28:43;;;;;;;30.38;15.18;;;;;;;20.71;16.58;99411.53;5076291;28;20028;-81
2022/01/23 11:31:13;;;;;;;33.70;17.33;;;;;;;21.22;15.92;99398.59;5065171;28;20037;-81
2022/01/23 11:33:40;;;;;;;32.78;16.65;;;;;;;21.52;15.58;99403.28;5054692;28;20048;-81
2022/01/23 11:36:07;;;;;;;37.40;17.65;;;;;;;20.98;15.89;99406.69;5056566;28;20029;-81
2022/01/23 11:38:33;;;;;;;35.63;14.82;;;;;;;19.18;17.55;99410.19;5062502;28;20488;-81
2022/01/23 11:54:51;;;;;;;36.13;15.00;;;;;;;19.13;17.64;99404.97;5055658;28;20056;-81
2022/01/23 11:57:42;;;;;;;33.60;16.67;;;;;;;16.86;20.09;99411.00;5055634;28;20485;-81
2022/01/23 12:00:23;;;;;;;32.08;14.27;;;;;;;16.73;20.62;99411.41;5055714;28;20521;-81
2022/01/23 12:03:15;;;;;;;37.45;17.23;;;;;;;17.47;19.83;99422.56;5055772;28;20033;-81
2022/01/23 12:05:49;;;;;;;28.05;14.43;;;;;;;18.71;18.76;99423.59;5062597;28;20035;-81
2022/01/23 12:08:16;;;;;;;37.72;16.05;;;;;;;19.61;17.62;99422.16;5073707;28;20431;-81
2022/01/23 12:11:15;;;;;;;28.73;13.32;;;;;;;19.54;17.67;99428.41;5054926;28;20033;-81
2022/01/23 12:19:12;;;;;;;37.92;17.52;;;;;;;19.15;17.95;99421.28;5055363;28;20248;-81
2022/01/23 12:21:38;;;;;;;34.75;15.68;;;;;;;18.83;17.88;99422.63;5071150;28;20442;-81
2022/01/23 12:24:08;;;;;;;26.05;14.35;;;;;;;19.47;17.65;99424.69;5074051;28;20032;-81
2022/01/23 12:26:34;;;;;;;33.70;16.37;;;;;;;19.50;17.70;99424.75;5074088;28;20540;-80
2022/01/23 12:29:30;;;;;;;29.25;13.32;;;;;;;20.13;16.85;99422.22;5069718;28;20028;-81
2022/01/23 12:32:18;;;;;;;32.17;15.70;;;;;;;18.79;18.21;99430.88;5050541;28;20045;-81
2022/01/23 12:34:48;;;;;;;35.20;16.00;;;;;;;19.70;17.15;99419.91;5055066;28;20049;-80
2022/01/23 12:37:14;;;;;;;35.72;14.73;;;;;;;20.56;16.79;99418.13;5055030;28;20029;-80
2022/01/23 12:39:40;;;;;;;30.42;14.52;;;;;;;21.07;16.26;99415.59;5053696;28;20492;-80
2022/01/23 12:42:07;;;;;;;28.10;12.65;;;;;;;21.62;15.90;99416.53;5054529;28;20033;-80
2022/01/23 12:44:36;;;;;;;32.42;14.35;;;;;;;21.65;15.90;99412.97;5068694;28;20036;-80
2022/01/23 12:47:05;;;;;;;34.50;14.20;;;;;;;21.55;15.87;99413.69;5074556;28;20028;-81
2022/01/23 12:49:38;;;;;;;27.10;13.60;;;;;;;20.51;16.51;99419.22;5073094;28;20035;-81
2022/01/23 12:52:09;;;;;;;30.33;14.63;;;;;;;19.73;17.17;99433.94;5053480;28;20463;-81
2022/01/23 12:54:52;;;;;;;29.40;13.63;;;;;;;19.46;17.90;99426.69;5054287;28;20112;-81
2022/01/23 12:57:23;;;;;;;38.65;17.70;;;;;;;19.42;17.47;99417.44;5055059;28;20033;-80
2022/01/23 12:59:55;;;;;;;33.30;15.15;;;;;;;19.13;17.76;99426.41;5055072;28;20086;-81
2022/01/23 13:02:25;;;;;;;29.50;14.43;;;;;;;19.74;17.23;99424.38;5054310;28;20033;-81
2022/01/23 13:04:54;;;;;;;23.98;12.25;;;;;;;19.51;17.40;99426.34;5054286;28;20029;-81
2022/01/23 13:07:33;;;;;;;35.38;14.48;;;;;;;19.19;17.62;99422.97;5054166;28;20115;-81
2022/01/23 13:10:24;;;;;;;29.23;12.52;;;;;;;18.88;18.01;99436.25;5070215;28;20082;-81
2022/01/23 13:13:07;;;;;;;30.23;13.55;;;;;;;19.13;17.64;99443.13;5073601;28;20052;-81
2022/01/23 13:32:13;;;;;;;32.10;15.73;;;;;;;19.57;17.44;99447.19;5070967;28;20106;-81
2022/01/23 13:34:45;;;;;;;39.97;17.20;;;;;;;19.71;17.19;99452.19;5072896;28;20396;-81
2022/01/23 13:37:13;;;;;;;33.58;14.80;;;;;;;19.89;17.08;99447.72;5067996;28;20078;-81
2022/01/23 13:40:03;;;;;;;38.92;15.65;;;;;;;20.43;16.45;99448.22;5053960;28;20033;-81
2022/01/23 13:42:57;;;;;;;35.27;14.73;;;;;;;21.15;16.15;99440.41;5053743;28;20481;-80
2022/01/23 13:59:51;;;;;;;32.75;15.27;;;;;;;19.59;17.27;99439.25;5053641;28;20048;-80
2022/01/23 14:02:34;;;;;;;29.48;13.50;;;;;;;19.47;17.39;99436.63;5053920;28;20037;-80
2022/01/23 14:05:14;;;;;;;31.73;14.73;;;;;;;18.80;18.22;99435.28;5062351;28;20028;-80
2022/01/23 14:07:51;;;;;;;29.10;13.45;;;;;;;19.15;17.95;99444.38;5072315;28;20028;-80
2022/01/23 14:10:28;;;;;;;38.95;16.80;;;;;;;18.97;18.16;99439.63;5072918;28;20031;-80
2022/01/23 14:13:04;;;;;;;30.98;13.63;;;;;;;19.85;17.24;99438.50;5072028;28;20020;-80
2022/01/23 14:15:30;;;;;;;32.70;15.45;;;;;;;18.70;18.20;99448.97;5073151;28;20025;-80
2022/01/23 14:18:09;;;;;;;36.10;15.55;;;;;;;19.07;17.98;99444.56;5073071;28;20037;-80
2022/01/23 14:20:39;;;;;;;29.20;13.13;;;;;;;19.39;17.65;99445.25;5054593;28;20045;-79
2022/01/23 14:23:18;;;;;;;33.50;14.20;;;;;;;19.62;17.52;99444.09;5054206;28;20037;-80
2022/01/23 14:25:59;;;;;;;30.52;12.10;;;;;;;18.92;18.03;99446.28;5054503;28;20376;-80
2022/01/23 14:28:36;;;;;;;35.33;15.20;;;;;;;19.78;17.20;99455.91;5072333;28;20066;-80
2022/01/23 14:31:19;;;;;;;26.52;12.60;;;;;;;19.05;17.85;99455.28;5069770;28;20043;-80
2022/01/23 14:33:49;;;;;;;28.70;12.73;;;;;;;19.80;17.31;99455.53;5055964;28;20033;-80
2022/01/23 14:36:17;;;;;;;31.95;13.10;;;;;;;19.85;16.99;99453.25;5056003;28;20119;-80
2022/01/23 14:38:57;;;;;;;26.00;12.20;;;;;;;19.72;17.23;99457.38;5057729;28;20032;-80
2022/01/23 14:41:39;;;;;;;29.92;13.38;;;;;;;19.80;17.10;99458.31;5070280;28;20361;-80
2022/01/23 14:44:18;;;;;;;27.33;11.02;;;;;;;19.67;17.33;99454.13;5077456;28;20029;-79
2022/01/23 14:46:49;;;;;;;25.23;11.98;;;;;;;19.98;16.99;99465.81;5077212;28;20040;-80
2022/01/23 14:49:22;;;;;;;29.42;13.57;;;;;;;20.35;16.70;99470.81;5077049;28;20062;-80
2022/01/23 14:51:48;;;;;;;26.52;11.95;;;;;;;20.65;16.29;99483.59;5056915;28;20031;-79
2022/01/23 14:54:17;;;;;;;23.95;12.15;;;;;;;20.12;16.86;99489.53;5055480;28;20488;-80
2022/01/23 14:56:43;;;;;;;22.65;11.98;;;;;;;20.04;16.91;99490.56;5057305;28;20029;-79